sensor_id;sensor_type;location;lat;lon;timestamp;pressure;altitude;pressure_sealevel;temperature;humidity
32789;BME280;19141;48.980;8.410;2024-01-16T05:22:32;99805.66;;;-2.31;100.00
32789;BME280;19141;48.980;8.410;2024-01-16T05:24:59;99797.63;;;-2.41;100.00
32789;BME280;19141;48.980;8.410;2024-01-16T05:27:24;99798.38;;;-2.26;99.76
32789;BME280;19141;48.980;8.410;2024-01-16T05:29:50;99790.22;;;-2.09;99.19
32789;BME280;19141;48.980;8.410;2024-01-16T05:32:16;99800.16;;;-2.01;98.09
32789;BME280;19141;48.980;8.410;2024-01-16T05:34:41;99789.19;;;-2.19;98.75
32789;BME280;19141;48.980;8.410;2024-01-16T05:37:06;99775.44;;;-1.96;98.12
32789;BME280;19141;48.980;8.410;2024-01-16T05:39:32;99777.41;;;-1.99;98.12
32789;BME280;19141;48.980;8.410;2024-01-16T05:41:57;99765.06;;;-2.10;97.80
32789;BME280;19141;48.980;8.410;2024-01-16T05:44:23;99775.00;;;-2.28;98.96
32789;BME280;19141;48.980;8.410;2024-01-16T05:46:48;99770.81;;;-2.05;98.79
32789;BME280;19141;48.980;8.410;2024-01-16T05:49:13;99776.34;;;-2.09;98.29
32789;BME280;19141;48.980;8.410;2024-01-16T05:51:39;99775.59;;;-2.24;99.12
32789;BME280;19141;48.980;8.410;2024-01-16T05:54:04;99775.41;;;-2.34;99.67
32789;BME280;19141;48.980;8.410;2024-01-16T05:56:31;99781.06;;;-2.27;99.40
32789;BME280;19141;48.980;8.410;2024-01-16T05:58:57;99778.00;;;-2.47;100.00
32789;BME280;19141;48.980;8.410;2024-01-16T06:01:22;99783.53;;;-2.38;100.00
32789;BME280;19141;48.980;8.410;2024-01-16T06:03:48;99778.22;;;-2.24;99.71
32789;BME280;19141;48.980;8.410;2024-01-16T06:06:14;99775.47;;;-2.35;100.00
32789;BME280;19141;48.980;8.410;2024-01-16T06:08:39;99779.78;;;-2.47;100.00
32789;BME280;19141;48.980;8.410;2024-01-16T06:11:05;99780.50;;;-2.45;100.00
32789;BME280;19141;48.980;8.410;2024-01-16T06:13:30;99782.06;;;-2.42;100.00
32789;BME280;19141;48.980;8.410;2024-01-16T06:15:57;99781.53;;;-2.35;100.00
32789;BME280;19141;48.980;8.410;2024-01-16T06:18:23;99776.03;;;-2.30;100.00
32789;BME280;19141;48.980;8.410;2024-01-16T06:20:48;99774.75;;;-2.37;100.00
32789;BME280;19141;48.980;8.410;2024-01-16T06:23:13;99780.38;;;-2.43;100.00
32789;BME280;19141;48.980;8.410;2024-01-16T06:25:39;99788.22;;;-2.43;100.00
32789;BME280;19141;48.980;8.410;2024-01-16T06:28:05;99782.19;;;-2.31;100.00
32789;BME280;19141;48.980;8.410;2024-01-16T06:30:30;99785.44;;;-2.28;100.00
32789;BME280;19141;48.980;8.410;2024-01-16T06:32:56;99784.06;;;-2.33;100.00
32789;BME280;19141;48.980;8.410;2024-01-16T06:35:22;99785.72;;;-2.32;100.00
32789;BME280;19141;48.980;8.410;2024-01-16T06:37:49;99787.31;;;-2.17;100.00
32789;BME280;19141;48.980;8.410;2024-01-16T06:40:14;99786.03;;;-2.24;100.00
32789;BME280;19141;48.980;8.410;2024-01-16T06:42:40;99792.09;;;-2.24;100.00
32789;BME280;19141;48.980;8.410;2024-01-16T06:45:05;99788.34;;;-2.32;100.00
32789;BME280;19141;48.980;8.410;2024-01-16T06:47:31;99784.16;;;-2.22;100.00
32789;BME280;19141;48.980;8.410;2024-01-16T06:49:58;99784.59;;;-2.28;100.00
32789;BME280;19141;48.980;8.410;2024-01-16T06:52:23;99776.03;;;-2.30;100.00
32789;BME280;19141;48.980;8.410;2024-01-16T06:54:50;99773.31;;;-2.29;100.00
32789;BME280;19141;48.980;8.410;2024-01-16T06:57:15;99772.19;;;-2.12;99.85
32789;BME280;19141;48.980;8.410;2024-01-16T06:59:40;99774.47;;;-2.07;99.74
32789;BME280;19141;48.980;8.410;2024-01-16T07:02:06;99765.81;;;-2.08;99.91
32789;BME280;19141;48.980;8.410;2024-01-16T07:04:32;99770.09;;;-2.07;99.57
32789;BME280;19141;48.980;8.410;2024-01-16T07:06:58;99767.91;;;-2.00;98.70
32789;BME280;19141;48.980;8.410;2024-01-16T07:09:25;99762.47;;;-2.10;99.18
32789;BME280;19141;48.980;8.410;2024-01-16T07:11:50;99762.69;;;-2.13;99.63
32789;BME280;19141;48.980;8.410;2024-01-16T07:14:16;99765.59;;;-2.05;99.14
32789;BME280;19141;48.980;8.410;2024-01-16T07:16:41;99768.44;;;-2.08;99.61
32789;BME280;19141;48.980;8.410;2024-01-16T07:19:07;99765.59;;;-2.05;99.54
32789;BME280;19141;48.980;8.410;2024-01-16T07:21:32;99763.09;;;-2.06;98.91
32789;BME280;19141;48.980;8.410;2024-01-16T07:23:58;99769.56;;;-1.99;99.21
32789;BME280;19141;48.980;8.410;2024-01-16T07:26:24;99767.69;;;-1.97;99.09
32789;BME280;19141;48.980;8.410;2024-01-16T07:28:49;99770.19;;;-1.96;98.95
32789;BME280;19141;48.980;8.410;2024-01-16T07:31:15;99765.41;;;-2.02;99.57
32789;BME280;19141;48.980;8.410;2024-01-16T07:33:42;99764.44;;;-1.75;99.28
32789;BME280;19141;48.980;8.410;2024-01-16T07:36:08;99762.44;;;-1.84;98.84
32789;BME280;19141;48.980;8.410;2024-01-16T07:38:34;99764.53;;;-1.77;98.79
32789;BME280;19141;48.980;8.410;2024-01-16T07:41:01;99774.25;;;-1.79;98.52
32789;BME280;19141;48.980;8.410;2024-01-16T07:43:26;99762.22;;;-1.69;98.59
32789;BME280;19141;48.980;8.410;2024-01-16T07:45:51;99763.06;;;-1.68;98.13
32789;BME280;19141;48.980;8.410;2024-01-16T07:48:17;99761.91;;;-1.77;98.16
32789;BME280;19141;48.980;8.410;2024-01-16T07:50:42;99762.94;;;-1.67;98.39
32789;BME280;19141;48.980;8.410;2024-01-16T07:53:09;99770.03;;;-1.56;97.06
32789;BME280;19141;48.980;8.410;2024-01-16T07:55:34;99767.31;;;-1.54;96.67
32789;BME280;19141;48.980;8.410;2024-01-16T07:57:59;99776.09;;;-1.55;96.94
32789;BME280;19141;48.980;8.410;2024-01-16T08:00:25;99773.81;;;-1.23;94.96
32789;BME280;19141;48.980;8.410;2024-01-16T08:02:52;99770.19;;;-1.33;96.17
32789;BME280;19141;48.980;8.410;2024-01-16T08:05:18;99771.50;;;-1.15;94.23
32789;BME280;19141;48.980;8.410;2024-01-16T08:07:44;99781.94;;;-1.15;93.44
32789;BME280;19141;48.980;8.410;2024-01-16T08:10:10;99769.88;;;-1.05;93.04
32789;BME280;19141;48.980;8.410;2024-01-16T08:12:36;99778.09;;;-1.22;94.37
32789;BME280;19141;48.980;8.410;2024-01-16T08:15:03;99776.44;;;-0.99;95.75
32789;BME280;19141;48.980;8.410;2024-01-16T08:17:28;99782.94;;;-0.81;93.45
32789;BME280;19141;48.980;8.410;2024-01-16T08:19:54;99782.44;;;-0.86;95.08
32789;BME280;19141;48.980;8.410;2024-01-16T08:22:19;99779.59;;;-1.07;93.98
32789;BME280;19141;48.980;8.410;2024-01-16T08:24:44;99785.03;;;-0.97;94.17
32789;BME280;19141;48.980;8.410;2024-01-16T08:27:10;99791.34;;;-1.13;93.71
32789;BME280;19141;48.980;8.410;2024-01-16T08:29:35;99795.97;;;-0.92;93.09
32789;BME280;19141;48.980;8.410;2024-01-16T08:32:01;99795.84;;;-1.15;93.65
32789;BME280;19141;48.980;8.410;2024-01-16T08:34:26;99792.34;;;-0.78;93.23
32789;BME280;19141;48.980;8.410;2024-01-16T08:36:52;99800.94;;;-0.76;92.77
32789;BME280;19141;48.980;8.410;2024-01-16T08:39:23;99803.88;;;-0.57;91.48
32789;BME280;19141;48.980;8.410;2024-01-16T08:41:50;99800.56;;;-0.48;90.22
32789;BME280;19141;48.980;8.410;2024-01-16T08:44:15;99803.56;;;-0.41;89.87
32789;BME280;19141;48.980;8.410;2024-01-16T08:46:40;99801.00;;;-0.65;91.19
32789;BME280;19141;48.980;8.410;2024-01-16T08:49:06;99807.25;;;-0.44;90.76
32789;BME280;19141;48.980;8.410;2024-01-16T08:51:31;99807.34;;;-0.10;88.18
32789;BME280;19141;48.980;8.410;2024-01-16T08:53:56;99809.63;;;0.17;86.36
32789;BME280;19141;48.980;8.410;2024-01-16T08:56:22;99813.31;;;0.03;87.58
32789;BME280;19141;48.980;8.410;2024-01-16T08:58:47;99812.72;;;0.11;87.84
32789;BME280;19141;48.980;8.410;2024-01-16T09:01:12;99817.22;;;-0.03;87.75
32789;BME280;19141;48.980;8.410;2024-01-16T09:03:38;99820.53;;;-0.01;87.95
32789;BME280;19141;48.980;8.410;2024-01-16T09:06:03;99820.69;;;0.09;86.48
32789;BME280;19141;48.980;8.410;2024-01-16T09:08:29;99818.31;;;0.17;85.63
32789;BME280;19141;48.980;8.410;2024-01-16T09:10:55;99816.94;;;0.47;85.44
32789;BME280;19141;48.980;8.410;2024-01-16T09:13:21;99813.81;;;0.31;84.81
32789;BME280;19141;48.980;8.410;2024-01-16T09:15:47;99827.38;;;0.58;84.19
32789;BME280;19141;48.980;8.410;2024-01-16T09:18:13;99814.84;;;0.84;81.54
32789;BME280;19141;48.980;8.410;2024-01-16T09:20:39;99808.34;;;1.11;82.11
32789;BME280;19141;48.980;8.410;2024-01-16T09:23:04;99818.75;;;1.01;80.45
32789;BME280;19141;48.980;8.410;2024-01-16T09:25:29;99821.72;;;1.51;77.85
32789;BME280;19141;48.980;8.410;2024-01-16T09:27:55;99813.69;;;1.31;79.11
32789;BME280;19141;48.980;8.410;2024-01-16T09:30:20;99814.88;;;1.59;77.83
32789;BME280;19141;48.980;8.410;2024-01-16T09:32:48;99817.06;;;1.75;75.15
32789;BME280;19141;48.980;8.410;2024-01-16T09:35:13;99816.41;;;1.30;77.56
32789;BME280;19141;48.980;8.410;2024-01-16T09:37:39;99817.06;;;1.75;76.56
32789;BME280;19141;48.980;8.410;2024-01-16T09:40:06;99820.59;;;1.85;75.91
32789;BME280;19141;48.980;8.410;2024-01-16T09:42:31;99813.97;;;3.13;70.56
32789;BME280;19141;48.980;8.410;2024-01-16T09:44:57;99833.19;;;2.64;70.22
32789;BME280;19141;48.980;8.410;2024-01-16T09:47:24;99829.06;;;2.40;70.72
32789;BME280;19141;48.980;8.410;2024-01-16T09:49:50;99828.13;;;2.82;69.47
32789;BME280;19141;48.980;8.410;2024-01-16T09:52:15;99822.75;;;2.93;68.68
32789;BME280;19141;48.980;8.410;2024-01-16T09:54:40;99833.78;;;2.47;71.73
32789;BME280;19141;48.980;8.410;2024-01-16T09:57:07;99838.94;;;1.97;71.15
32789;BME280;19141;48.980;8.410;2024-01-16T09:59:32;99832.56;;;1.78;73.05
32789;BME280;19141;48.980;8.410;2024-01-16T10:02:01;99825.72;;;1.87;71.15
32789;BME280;19141;48.980;8.410;2024-01-16T10:04:31;99825.25;;;1.82;71.10
32789;BME280;19141;48.980;8.410;2024-01-16T10:06:57;99812.31;;;2.11;71.01
32789;BME280;19141;48.980;8.410;2024-01-16T10:09:23;99805.00;;;2.35;69.20
32789;BME280;19141;48.980;8.410;2024-01-16T10:11:50;99796.06;;;3.17;66.18
32789;BME280;19141;48.980;8.410;2024-01-16T10:14:17;99792.31;;;3.10;66.54
32789;BME280;19141;48.980;8.410;2024-01-16T10:16:58;99786.41;;;3.46;64.33
32789;BME280;19141;48.980;8.410;2024-01-16T10:19:27;99779.28;;;4.97;57.44
32789;BME280;19141;48.980;8.410;2024-01-16T10:22:03;99777.69;;;5.04;57.67
32789;BME280;19141;48.980;8.410;2024-01-16T10:24:29;99771.06;;;5.18;57.86
32789;BME280;19141;48.980;8.410;2024-01-16T10:26:59;99770.97;;;5.63;55.65
32789;BME280;19141;48.980;8.410;2024-01-16T10:29:31;99768.16;;;5.83;54.89
32789;BME280;19141;48.980;8.410;2024-01-16T10:32:00;99766.19;;;6.37;51.61
32789;BME280;19141;48.980;8.410;2024-01-16T10:34:25;99771.13;;;6.06;52.96
32789;BME280;19141;48.980;8.410;2024-01-16T10:36:58;99774.97;;;7.54;49.61
32789;BME280;19141;48.980;8.410;2024-01-16T10:39:24;99751.19;;;7.04;49.42
32789;BME280;19141;48.980;8.410;2024-01-16T10:42:00;99747.34;;;6.82;49.29
32789;BME280;19141;48.980;8.410;2024-01-16T10:44:25;99755.13;;;5.28;52.80
32789;BME280;19141;48.980;8.410;2024-01-16T10:47:09;99758.84;;;6.57;52.42
32789;BME280;19141;48.980;8.410;2024-01-16T10:49:37;99754.69;;;4.69;53.97
32789;BME280;19141;48.980;8.410;2024-01-16T10:52:04;99753.81;;;6.11;52.45
32789;BME280;19141;48.980;8.410;2024-01-16T10:54:35;99754.59;;;6.04;55.73
32789;BME280;19141;48.980;8.410;2024-01-16T10:57:03;99753.59;;;6.05;51.51
32789;BME280;19141;48.980;8.410;2024-01-16T10:59:35;99753.28;;;6.34;52.19
32789;BME280;19141;48.980;8.410;2024-01-16T11:02:07;99751.09;;;5.95;54.53
32789;BME280;19141;48.980;8.410;2024-01-16T11:04:36;99744.44;;;5.91;54.22
32789;BME280;19141;48.980;8.410;2024-01-16T11:07:03;99744.91;;;6.12;54.65
32789;BME280;19141;48.980;8.410;2024-01-16T11:09:31;99743.75;;;5.27;56.14
32789;BME280;19141;48.980;8.410;2024-01-16T11:11:57;99741.44;;;6.46;53.58
32789;BME280;19141;48.980;8.410;2024-01-16T11:14:24;99729.75;;;5.53;52.50
32789;BME280;19141;48.980;8.410;2024-01-16T11:16:51;99724.78;;;5.50;55.29
32789;BME280;19141;48.980;8.410;2024-01-16T11:19:18;99719.75;;;6.93;52.25
32789;BME280;19141;48.980;8.410;2024-01-16T11:21:45;99722.94;;;7.29;51.33
32789;BME280;19141;48.980;8.410;2024-01-16T11:24:12;99715.94;;;6.45;49.38
32789;BME280;19141;48.980;8.410;2024-01-16T11:26:40;99713.94;;;6.97;50.78
32789;BME280;19141;48.980;8.410;2024-01-16T11:31:53;99705.38;;;6.45;53.44
32789;BME280;19141;48.980;8.410;2024-01-16T11:37:11;99698.03;;;6.31;49.33
32789;BME280;19141;48.980;8.410;2024-01-16T11:39:37;99690.41;;;6.19;55.37
32789;BME280;19141;48.980;8.410;2024-01-16T11:42:03;99685.34;;;5.74;51.46
32789;BME280;19141;48.980;8.410;2024-01-16T11:44:46;99686.28;;;6.84;50.35
32789;BME280;19141;48.980;8.410;2024-01-16T11:47:20;99677.06;;;7.04;47.62
32789;BME280;19141;48.980;8.410;2024-01-16T11:49:47;99675.09;;;7.39;49.07
32789;BME280;19141;48.980;8.410;2024-01-16T11:52:12;99666.38;;;6.55;49.15
32789;BME280;19141;48.980;8.410;2024-01-16T11:54:39;99658.09;;;6.50;49.98
32789;BME280;19141;48.980;8.410;2024-01-16T11:57:23;99659.28;;;5.09;55.80
32789;BME280;19141;48.980;8.410;2024-01-16T12:00:00;99652.25;;;6.30;49.40
32789;BME280;19141;48.980;8.410;2024-01-16T12:02:49;99653.38;;;5.15;53.04
32789;BME280;19141;48.980;8.410;2024-01-16T12:05:14;99644.66;;;5.93;50.04
32789;BME280;19141;48.980;8.410;2024-01-16T12:07:45;99638.66;;;5.13;52.44
32789;BME280;19141;48.980;8.410;2024-01-16T12:10:10;99626.41;;;6.08;51.43
32789;BME280;19141;48.980;8.410;2024-01-16T12:12:36;99629.88;;;6.16;50.07
32789;BME280;19141;48.980;8.410;2024-01-16T12:15:01;99626.78;;;5.09;51.53
32789;BME280;19141;48.980;8.410;2024-01-16T12:17:27;99626.97;;;6.28;53.04
32789;BME280;19141;48.980;8.410;2024-01-16T12:19:52;99619.91;;;5.68;50.10
32789;BME280;19141;48.980;8.410;2024-01-16T12:22:19;99621.78;;;5.84;49.49
32789;BME280;19141;48.980;8.410;2024-01-16T12:24:46;99627.25;;;5.56;48.65
32789;BME280;19141;48.980;8.410;2024-01-16T12:27:13;99633.81;;;5.08;50.03
32789;BME280;19141;48.980;8.410;2024-01-16T12:29:38;99629.56;;;5.33;49.26
32789;BME280;19141;48.980;8.410;2024-01-16T12:32:09;99622.16;;;5.89;48.82
32789;BME280;19141;48.980;8.410;2024-01-16T12:34:43;99626.69;;;4.47;49.88
32789;BME280;19141;48.980;8.410;2024-01-16T12:37:10;99619.34;;;5.12;49.92
32789;BME280;19141;48.980;8.410;2024-01-16T12:39:36;99620.44;;;5.28;50.10
32789;BME280;19141;48.980;8.410;2024-01-16T12:42:02;99620.19;;;5.39;49.15
32789;BME280;19141;48.980;8.410;2024-01-16T12:44:28;99608.75;;;5.90;47.94
32789;BME280;19141;48.980;8.410;2024-01-16T12:46:55;99602.06;;;4.56;51.09
32789;BME280;19141;48.980;8.410;2024-01-16T12:49:24;99602.09;;;4.82;52.01
32789;BME280;19141;48.980;8.410;2024-01-16T12:51:50;99588.53;;;3.96;53.39
32789;BME280;19141;48.980;8.410;2024-01-16T12:54:17;99593.59;;;4.35;53.26
32789;BME280;19141;48.980;8.410;2024-01-16T12:56:44;99589.75;;;5.27;51.94
32789;BME280;19141;48.980;8.410;2024-01-16T12:59:13;99583.69;;;5.34;51.03
32789;BME280;19141;48.980;8.410;2024-01-16T13:01:43;99584.41;;;4.75;51.91
32789;BME280;19141;48.980;8.410;2024-01-16T13:04:10;99585.28;;;5.27;51.30
32789;BME280;19141;48.980;8.410;2024-01-16T13:06:36;99583.50;;;4.66;53.45
32789;BME280;19141;48.980;8.410;2024-01-16T13:09:09;99574.53;;;4.77;52.07
32789;BME280;19141;48.980;8.410;2024-01-16T13:12:04;99572.97;;;3.48;55.08
32789;BME280;19141;48.980;8.410;2024-01-16T13:14:30;99563.25;;;4.31;54.67
32789;BME280;19141;48.980;8.410;2024-01-16T13:16:55;99566.38;;;4.88;53.21
32789;BME280;19141;48.980;8.410;2024-01-16T13:19:21;99562.91;;;5.13;51.20
32789;BME280;19141;48.980;8.410;2024-01-16T13:21:47;99565.47;;;4.79;50.50
32789;BME280;19141;48.980;8.410;2024-01-16T13:24:13;99561.50;;;4.57;50.27
32789;BME280;19141;48.980;8.410;2024-01-16T13:26:39;99554.94;;;4.26;52.62
32789;BME280;19141;48.980;8.410;2024-01-16T13:29:05;99549.47;;;4.37;52.14
32789;BME280;19141;48.980;8.410;2024-01-16T13:31:31;99546.84;;;4.09;54.83
32789;BME280;19141;48.980;8.410;2024-01-16T13:33:57;99545.63;;;3.86;54.63
32789;BME280;19141;48.980;8.410;2024-01-16T13:36:22;99536.94;;;3.48;55.45
32789;BME280;19141;48.980;8.410;2024-01-16T13:38:48;99530.19;;;3.64;54.79
32789;BME280;19141;48.980;8.410;2024-01-16T13:41:14;99520.38;;;3.84;54.00
32789;BME280;19141;48.980;8.410;2024-01-16T13:43:40;99512.00;;;4.16;51.65
32789;BME280;19141;48.980;8.410;2024-01-16T13:46:06;99512.44;;;4.47;51.94
32789;BME280;19141;48.980;8.410;2024-01-16T13:48:34;99516.75;;;3.67;53.51
32789;BME280;19141;48.980;8.410;2024-01-16T13:50:59;99512.31;;;3.40;54.32
32789;BME280;19141;48.980;8.410;2024-01-16T13:53:25;99511.88;;;3.72;53.45
32789;BME280;19141;48.980;8.410;2024-01-16T13:55:50;99518.81;;;3.63;53.47
32789;BME280;19141;48.980;8.410;2024-01-16T13:58:16;99513.53;;;2.98;54.97
32789;BME280;19141;48.980;8.410;2024-01-16T14:00:41;99515.09;;;3.29;56.10
32789;BME280;19141;48.980;8.410;2024-01-16T14:03:07;99518.50;;;3.48;53.48
32789;BME280;19141;48.980;8.410;2024-01-16T14:05:32;99509.69;;;2.83;54.72
32789;BME280;19141;48.980;8.410;2024-01-16T14:07:58;99516.66;;;3.59;53.81
32789;BME280;19141;48.980;8.410;2024-01-16T14:10:23;99515.94;;;3.29;53.55
32789;BME280;19141;48.980;8.410;2024-01-16T14:12:50;99522.53;;;3.43;53.18
32789;BME280;19141;48.980;8.410;2024-01-16T14:15:19;99517.19;;;3.25;55.40
32789;BME280;19141;48.980;8.410;2024-01-16T14:17:55;99511.56;;;3.10;54.99
32789;BME280;19141;48.980;8.410;2024-01-16T14:20:23;99526.94;;;3.15;54.87
32789;BME280;19141;48.980;8.410;2024-01-16T14:22:52;99530.41;;;3.06;55.17
32789;BME280;19141;48.980;8.410;2024-01-16T14:25:18;99531.59;;;2.74;56.39
32789;BME280;19141;48.980;8.410;2024-01-16T14:27:48;99534.50;;;2.71;56.25
32789;BME280;19141;48.980;8.410;2024-01-16T14:30:14;99536.00;;;2.73;55.83
32789;BME280;19141;48.980;8.410;2024-01-16T14:32:42;99537.53;;;2.66;54.51
32789;BME280;19141;48.980;8.410;2024-01-16T14:35:08;99530.09;;;2.62;56.06
32789;BME280;19141;48.980;8.410;2024-01-16T14:37:35;99529.75;;;2.94;56.08
32789;BME280;19141;48.980;8.410;2024-01-16T14:40:03;99527.56;;;2.60;57.32
32789;BME280;19141;48.980;8.410;2024-01-16T14:42:32;99518.31;;;2.37;58.77
32789;BME280;19141;48.980;8.410;2024-01-16T14:44:59;99520.28;;;2.35;58.56
32789;BME280;19141;48.980;8.410;2024-01-16T14:47:25;99512.91;;;2.38;57.41
32789;BME280;19141;48.980;8.410;2024-01-16T14:49:50;99522.59;;;2.48;56.77
32789;BME280;19141;48.980;8.410;2024-01-16T14:52:16;99518.31;;;2.17;57.55
32789;BME280;19141;48.980;8.410;2024-01-16T14:54:43;99512.50;;;2.24;58.41
32789;BME280;19141;48.980;8.410;2024-01-16T14:57:08;99520.00;;;2.28;58.19
32789;BME280;19141;48.980;8.410;2024-01-16T14:59:35;99518.97;;;2.00;58.44
32789;BME280;19141;48.980;8.410;2024-01-16T15:02:00;99512.09;;;2.09;61.02
32789;BME280;19141;48.980;8.410;2024-01-16T15:04:33;99511.38;;;1.97;59.43
32789;BME280;19141;48.980;8.410;2024-01-16T15:06:58;99514.22;;;1.75;60.64
32789;BME280;19141;48.980;8.410;2024-01-16T15:09:24;99512.72;;;1.82;61.04
32789;BME280;19141;48.980;8.410;2024-01-16T15:11:49;99513.25;;;1.66;61.95
32789;BME280;19141;48.980;8.410;2024-01-16T15:14:15;99519.06;;;1.70;61.74
32789;BME280;19141;48.980;8.410;2024-01-16T15:16:42;99519.75;;;1.72;62.18
32789;BME280;19141;48.980;8.410;2024-01-16T15:19:07;99519.31;;;1.57;61.74
32789;BME280;19141;48.980;8.410;2024-01-16T15:21:32;99520.47;;;1.33;63.58
32789;BME280;19141;48.980;8.410;2024-01-16T15:23:58;99516.34;;;1.41;62.96
32789;BME280;19141;48.980;8.410;2024-01-16T15:26:23;99504.44;;;1.36;62.29
32789;BME280;19141;48.980;8.410;2024-01-16T15:28:50;99517.22;;;1.20;62.77
32789;BME280;19141;48.980;8.410;2024-01-16T15:31:16;99515.88;;;1.26;62.52
32789;BME280;19141;48.980;8.410;2024-01-16T15:33:41;99523.13;;;1.13;63.37
32789;BME280;19141;48.980;8.410;2024-01-16T15:36:07;99518.16;;;0.89;63.60
32789;BME280;19141;48.980;8.410;2024-01-16T15:38:32;99521.47;;;0.91;63.87
32789;BME280;19141;48.980;8.410;2024-01-16T15:40:58;99520.16;;;0.75;65.23
32789;BME280;19141;48.980;8.410;2024-01-16T15:43:24;99507.94;;;0.65;65.58
32789;BME280;19141;48.980;8.410;2024-01-16T15:45:49;99509.03;;;0.62;65.54
32789;BME280;19141;48.980;8.410;2024-01-16T15:48:14;99510.38;;;0.57;66.08
32789;BME280;19141;48.980;8.410;2024-01-16T15:50:40;99511.50;;;0.43;67.35
32789;BME280;19141;48.980;8.410;2024-01-16T15:53:05;99506.25;;;0.43;67.54
32789;BME280;19141;48.980;8.410;2024-01-16T15:55:31;99503.00;;;0.30;68.83
32789;BME280;19141;48.980;8.410;2024-01-16T15:57:57;99509.38;;;0.16;69.78
32789;BME280;19141;48.980;8.410;2024-01-16T16:00:22;99515.63;;;0.24;71.12
32789;BME280;19141;48.980;8.410;2024-01-16T16:02:49;99522.59;;;0.14;70.08
32789;BME280;19141;48.980;8.410;2024-01-16T16:05:14;99520.81;;;0.04;69.92
32789;BME280;19141;48.980;8.410;2024-01-16T16:07:40;99519.31;;;0.01;71.45
32789;BME280;19141;48.980;8.410;2024-01-16T16:10:06;99530.72;;;0.00;73.40
32789;BME280;19141;48.980;8.410;2024-01-16T16:12:31;99533.41;;;0.21;72.94
32789;BME280;19141;48.980;8.410;2024-01-16T16:14:57;99541.81;;;0.24;71.08
32789;BME280;19141;48.980;8.410;2024-01-16T16:17:22;99545.00;;;0.07;73.12
32789;BME280;19141;48.980;8.410;2024-01-16T16:19:47;99551.00;;;-0.36;77.83
32789;BME280;19141;48.980;8.410;2024-01-16T16:22:15;99536.41;;;-0.61;79.26
32789;BME280;19141;48.980;8.410;2024-01-16T16:24:43;99534.25;;;-0.44;79.38
32789;BME280;19141;48.980;8.410;2024-01-16T16:27:25;99532.47;;;-0.66;80.45
32789;BME280;19141;48.980;8.410;2024-01-16T16:29:55;99531.75;;;-0.79;81.14
32789;BME280;19141;48.980;8.410;2024-01-16T16:32:22;99532.00;;;-0.83;81.78
32789;BME280;19141;48.980;8.410;2024-01-16T16:34:47;99535.22;;;-0.90;82.31
32789;BME280;19141;48.980;8.410;2024-01-16T16:37:13;99524.88;;;-0.80;83.17
32789;BME280;19141;48.980;8.410;2024-01-16T16:39:39;99533.66;;;-1.04;84.06
32789;BME280;19141;48.980;8.410;2024-01-16T16:42:04;99539.16;;;-0.85;85.27
32789;BME280;19141;48.980;8.410;2024-01-16T16:44:30;99537.44;;;-0.86;84.69
32789;BME280;19141;48.980;8.410;2024-01-16T16:46:55;99544.81;;;-0.79;84.83
32789;BME280;19141;48.980;8.410;2024-01-16T16:49:21;99541.63;;;-0.94;85.56
32789;BME280;19141;48.980;8.410;2024-01-16T16:51:46;99541.59;;;-1.05;86.75
32789;BME280;19141;48.980;8.410;2024-01-16T16:54:12;99536.41;;;-0.83;84.26
32789;BME280;19141;48.980;8.410;2024-01-16T16:56:38;99541.16;;;-0.77;84.09
32789;BME280;19141;48.980;8.410;2024-01-16T16:59:05;99546.13;;;-0.85;83.96
32789;BME280;19141;48.980;8.410;2024-01-16T17:01:32;99544.31;;;-1.07;85.92
32789;BME280;19141;48.980;8.410;2024-01-16T17:04:00;99538.88;;;-1.04;88.05
32789;BME280;19141;48.980;8.410;2024-01-16T17:06:26;99544.84;;;-1.37;89.17
32789;BME280;19141;48.980;8.410;2024-01-16T17:08:52;99534.28;;;-1.35;90.23
32789;BME280;19141;48.980;8.410;2024-01-16T17:11:17;99530.34;;;-1.76;91.33
32789;BME280;19141;48.980;8.410;2024-01-16T17:13:43;99522.13;;;-1.83;92.00
32789;BME280;19141;48.980;8.410;2024-01-16T17:16:12;99530.38;;;-1.65;92.22
32789;BME280;19141;48.980;8.410;2024-01-16T17:18:37;99530.06;;;-1.84;92.62
32789;BME280;19141;48.980;8.410;2024-01-16T17:21:05;99525.97;;;-2.00;93.47
32789;BME280;19141;48.980;8.410;2024-01-16T17:23:32;99522.75;;;-1.79;93.13
32789;BME280;19141;48.980;8.410;2024-01-16T17:25:58;99520.41;;;-1.71;94.14
32789;BME280;19141;48.980;8.410;2024-01-16T17:28:24;99510.63;;;-2.04;95.48
32789;BME280;19141;48.980;8.410;2024-01-16T17:30:57;99515.06;;;-2.17;96.45
32789;BME280;19141;48.980;8.410;2024-01-16T17:33:24;99508.16;;;-2.06;96.94
32789;BME280;19141;48.980;8.410;2024-01-16T17:35:50;99505.59;;;-1.95;96.70
32789;BME280;19141;48.980;8.410;2024-01-16T17:38:15;99508.03;;;-2.04;96.83
32789;BME280;19141;48.980;8.410;2024-01-16T17:40:44;99500.44;;;-2.07;98.12
32789;BME280;19141;48.980;8.410;2024-01-16T17:43:09;99494.91;;;-2.15;96.22
32789;BME280;19141;48.980;8.410;2024-01-16T17:45:35;99494.88;;;-2.27;97.27
32789;BME280;19141;48.980;8.410;2024-01-16T17:48:02;99490.22;;;-2.34;98.37
32789;BME280;19141;48.980;8.410;2024-01-16T17:50:30;99482.91;;;-2.42;99.01
32789;BME280;19141;48.980;8.410;2024-01-16T17:52:55;99480.78;;;-2.61;99.19
32789;BME280;19141;48.980;8.410;2024-01-16T17:55:22;99481.47;;;-2.46;100.00
32789;BME280;19141;48.980;8.410;2024-01-16T17:57:48;99478.19;;;-2.37;99.63
32789;BME280;19141;48.980;8.410;2024-01-16T18:00:16;99478.72;;;-2.32;99.53
32789;BME280;19141;48.980;8.410;2024-01-16T18:02:42;99469.09;;;-2.31;99.69
32789;BME280;19141;48.980;8.410;2024-01-16T18:05:07;99474.56;;;-2.34;99.43
32789;BME280;19141;48.980;8.410;2024-01-16T18:07:36;99468.38;;;-2.33;98.81
32789;BME280;19141;48.980;8.410;2024-01-16T18:10:03;99465.00;;;-2.47;99.36
32789;BME280;19141;48.980;8.410;2024-01-16T18:12:40;99470.09;;;-2.45;99.05
32789;BME280;19141;48.980;8.410;2024-01-16T18:15:08;99468.16;;;-2.54;100.00
32789;BME280;19141;48.980;8.410;2024-01-16T18:17:41;99465.88;;;-2.35;99.01
32789;BME280;19141;48.980;8.410;2024-01-16T18:20:07;99460.06;;;-2.38;98.74
32789;BME280;19141;48.980;8.410;2024-01-16T18:22:33;99453.81;;;-2.49;98.18
32789;BME280;19141;48.980;8.410;2024-01-16T18:24:59;99454.06;;;-2.52;98.71
32789;BME280;19141;48.980;8.410;2024-01-16T18:27:24;99459.63;;;-2.32;97.30
32789;BME280;19141;48.980;8.410;2024-01-16T18:29:50;99452.78;;;-2.46;98.66